sensor_id;sensor_type;location;lat;lon;timestamp;pressure;altitude;pressure_sealevel;temperature;humidity
64908;BME280;69061;52.236;5.188;2024-02-28T00:00:12;101967.56;;;7.05;83.55
64908;BME280;69061;52.236;5.188;2024-02-28T00:02:38;101967.75;;;7.09;85.36
64908;BME280;69061;52.236;5.188;2024-02-28T00:05:05;101965.72;;;7.15;86.54
64908;BME280;69061;52.236;5.188;2024-02-28T00:07:32;101966.63;;;7.10;83.31
64908;BME280;69061;52.236;5.188;2024-02-28T00:10:00;101959.97;;;7.04;81.56
64908;BME280;69061;52.236;5.188;2024-02-28T00:12:26;101952.81;;;6.96;83.35
64908;BME280;69061;52.236;5.188;2024-02-28T00:14:54;101956.53;;;6.95;84.67
64908;BME280;69061;52.236;5.188;2024-02-28T00:17:21;101966.31;;;6.94;83.95
64908;BME280;69061;52.236;5.188;2024-02-28T00:19:47;101954.97;;;6.94;85.50
64908;BME280;69061;52.236;5.188;2024-02-28T00:22:14;101956.03;;;6.84;83.36
64908;BME280;69061;52.236;5.188;2024-02-28T00:24:40;101952.16;;;6.81;83.23
64908;BME280;69061;52.236;5.188;2024-02-28T00:27:07;101959.13;;;6.77;85.03
64908;BME280;69061;52.236;5.188;2024-02-28T00:29:34;101956.50;;;6.77;85.46
64908;BME280;69061;52.236;5.188;2024-02-28T00:32:02;101961.91;;;6.72;84.39
64908;BME280;69061;52.236;5.188;2024-02-28T00:34:29;101949.50;;;6.72;86.31
64908;BME280;69061;52.236;5.188;2024-02-28T00:36:55;101958.50;;;6.80;85.94
64908;BME280;69061;52.236;5.188;2024-02-28T00:39:22;101953.38;;;6.75;85.24
64908;BME280;69061;52.236;5.188;2024-02-28T00:41:48;101963.63;;;6.68;82.86
64908;BME280;69061;52.236;5.188;2024-02-28T00:44:15;101962.97;;;6.53;82.02
64908;BME280;69061;52.236;5.188;2024-02-28T00:46:41;101954.56;;;6.51;84.20
64908;BME280;69061;52.236;5.188;2024-02-28T00:49:09;101956.91;;;6.53;87.00
64908;BME280;69061;52.236;5.188;2024-02-28T00:51:36;101956.47;;;6.60;88.05
64908;BME280;69061;52.236;5.188;2024-02-28T00:54:03;101963.44;;;6.64;89.19
64908;BME280;69061;52.236;5.188;2024-02-28T00:56:30;101959.09;;;6.68;89.22
64908;BME280;69061;52.236;5.188;2024-02-28T00:58:57;101957.72;;;6.62;87.65
64908;BME280;69061;52.236;5.188;2024-02-28T01:01:23;101949.75;;;6.53;87.23
64908;BME280;69061;52.236;5.188;2024-02-28T01:03:50;101950.69;;;6.49;85.99
64908;BME280;69061;52.236;5.188;2024-02-28T01:06:18;101950.94;;;6.38;85.79
64908;BME280;69061;52.236;5.188;2024-02-28T01:08:44;101954.53;;;6.34;86.81
64908;BME280;69061;52.236;5.188;2024-02-28T01:11:11;101951.56;;;6.27;86.34
64908;BME280;69061;52.236;5.188;2024-02-28T01:13:38;101950.72;;;6.17;84.54
64908;BME280;69061;52.236;5.188;2024-02-28T01:16:04;101952.56;;;6.08;84.78
64908;BME280;69061;52.236;5.188;2024-02-28T01:18:31;101957.84;;;6.08;87.81
64908;BME280;69061;52.236;5.188;2024-02-28T01:20:58;101956.75;;;6.09;87.73
64908;BME280;69061;52.236;5.188;2024-02-28T01:23:26;101947.63;;;5.93;84.24
64908;BME280;69061;52.236;5.188;2024-02-28T01:25:52;101960.81;;;5.93;87.46
64908;BME280;69061;52.236;5.188;2024-02-28T01:28:19;101954.16;;;5.95;88.21
64908;BME280;69061;52.236;5.188;2024-02-28T01:30:45;101950.25;;;5.93;88.11
64908;BME280;69061;52.236;5.188;2024-02-28T01:33:12;101955.69;;;5.87;87.31
64908;BME280;69061;52.236;5.188;2024-02-28T01:35:39;101946.81;;;5.83;85.95
64908;BME280;69061;52.236;5.188;2024-02-28T01:38:05;101946.31;;;5.81;87.33
64908;BME280;69061;52.236;5.188;2024-02-28T01:40:33;101943.56;;;5.86;89.42
64908;BME280;69061;52.236;5.188;2024-02-28T01:43:03;101939.88;;;5.96;90.78
64908;BME280;69061;52.236;5.188;2024-02-28T01:45:30;101937.75;;;5.98;90.05
64908;BME280;69061;52.236;5.188;2024-02-28T01:47:56;101945.25;;;6.05;91.32
64908;BME280;69061;52.236;5.188;2024-02-28T01:50:23;101942.13;;;6.03;91.35
64908;BME280;69061;52.236;5.188;2024-02-28T01:52:50;101939.19;;;6.04;88.25
64908;BME280;69061;52.236;5.188;2024-02-28T01:55:17;101934.91;;;5.95;84.95
64908;BME280;69061;52.236;5.188;2024-02-28T01:57:45;101944.94;;;5.84;83.77
64908;BME280;69061;52.236;5.188;2024-02-28T02:00:12;101930.47;;;5.72;83.69
64908;BME280;69061;52.236;5.188;2024-02-28T02:02:39;101940.66;;;5.65;84.08
64908;BME280;69061;52.236;5.188;2024-02-28T02:05:07;101932.56;;;5.62;85.89
64908;BME280;69061;52.236;5.188;2024-02-28T02:07:35;101945.56;;;5.58;84.28
64908;BME280;69061;52.236;5.188;2024-02-28T02:10:01;101946.34;;;5.59;85.72
64908;BME280;69061;52.236;5.188;2024-02-28T02:12:28;101940.50;;;5.62;87.07
64908;BME280;69061;52.236;5.188;2024-02-28T02:14:56;101946.84;;;5.61;86.00
64908;BME280;69061;52.236;5.188;2024-02-28T02:17:23;101937.97;;;5.56;84.66
64908;BME280;69061;52.236;5.188;2024-02-28T02:19:49;101947.44;;;5.57;84.49
64908;BME280;69061;52.236;5.188;2024-02-28T02:22:16;101946.66;;;5.57;85.13
64908;BME280;69061;52.236;5.188;2024-02-28T02:24:46;101947.72;;;5.56;84.01
64908;BME280;69061;52.236;5.188;2024-02-28T02:27:13;101942.28;;;5.52;83.79
64908;BME280;69061;52.236;5.188;2024-02-28T02:29:39;101943.34;;;5.51;83.52
64908;BME280;69061;52.236;5.188;2024-02-28T02:32:06;101948.81;;;5.55;83.49
64908;BME280;69061;52.236;5.188;2024-02-28T02:34:33;101943.84;;;5.53;83.91
64908;BME280;69061;52.236;5.188;2024-02-28T02:36:59;101955.50;;;5.61;87.32
64908;BME280;69061;52.236;5.188;2024-02-28T02:39:26;101941.66;;;5.78;90.51
64908;BME280;69061;52.236;5.188;2024-02-28T02:41:54;101938.94;;;5.92;89.80
64908;BME280;69061;52.236;5.188;2024-02-28T02:44:20;101932.22;;;6.09;90.32
64908;BME280;69061;52.236;5.188;2024-02-28T02:46:47;101930.56;;;6.21;90.71
64908;BME280;69061;52.236;5.188;2024-02-28T02:49:14;101931.84;;;6.33;89.62
64908;BME280;69061;52.236;5.188;2024-02-28T02:51:41;101934.97;;;6.35;88.37
64908;BME280;69061;52.236;5.188;2024-02-28T02:54:08;101938.09;;;6.46;89.06
64908;BME280;69061;52.236;5.188;2024-02-28T02:56:35;101928.94;;;6.52;89.42
64908;BME280;69061;52.236;5.188;2024-02-28T02:59:03;101931.25;;;6.53;89.25
64908;BME280;69061;52.236;5.188;2024-02-28T03:01:29;101925.84;;;6.50;87.81
64908;BME280;69061;52.236;5.188;2024-02-28T03:03:56;101921.34;;;6.59;86.93
64908;BME280;69061;52.236;5.188;2024-02-28T03:06:22;101925.25;;;6.62;87.32
64908;BME280;69061;52.236;5.188;2024-02-28T03:08:49;101921.81;;;6.61;86.92
64908;BME280;69061;52.236;5.188;2024-02-28T03:11:16;101925.53;;;6.60;85.75
64908;BME280;69061;52.236;5.188;2024-02-28T03:13:42;101919.78;;;6.58;85.97
64908;BME280;69061;52.236;5.188;2024-02-28T03:16:10;101923.69;;;6.61;86.59
64908;BME280;69061;52.236;5.188;2024-02-28T03:18:37;101925.53;;;6.60;85.30
64908;BME280;69061;52.236;5.188;2024-02-28T03:21:04;101918.09;;;6.62;84.83
64908;BME280;69061;52.236;5.188;2024-02-28T03:23:30;101918.09;;;6.62;84.30
64908;BME280;69061;52.236;5.188;2024-02-28T03:25:57;101923.19;;;6.58;84.86
64908;BME280;69061;52.236;5.188;2024-02-28T03:28:23;101921.97;;;6.65;85.53
64908;BME280;69061;52.236;5.188;2024-02-28T03:30:50;101919.78;;;6.67;86.37
64908;BME280;69061;52.236;5.188;2024-02-28T03:33:18;101922.28;;;6.72;85.99
64908;BME280;69061;52.236;5.188;2024-02-28T03:35:44;101919.34;;;6.73;86.10
64908;BME280;69061;52.236;5.188;2024-02-28T03:38:11;101920.59;;;6.76;85.13
64908;BME280;69061;52.236;5.188;2024-02-28T03:40:37;101921.84;;;6.70;84.68
64908;BME280;69061;52.236;5.188;2024-02-28T03:43:03;101916.84;;;6.68;84.46
64908;BME280;69061;52.236;5.188;2024-02-28T03:45:30;101916.97;;;6.54;84.79
64908;BME280;69061;52.236;5.188;2024-02-28T03:47:56;101919.00;;;6.49;85.04
64908;BME280;69061;52.236;5.188;2024-02-28T03:50:24;101919.31;;;6.56;85.78
64908;BME280;69061;52.236;5.188;2024-02-28T03:52:51;101926.16;;;6.57;85.45
64908;BME280;69061;52.236;5.188;2024-02-28T03:55:17;101921.03;;;6.61;84.53
64908;BME280;69061;52.236;5.188;2024-02-28T03:57:46;101917.91;;;6.50;85.99
64908;BME280;69061;52.236;5.188;2024-02-28T04:00:14;101923.97;;;6.50;86.15
64908;BME280;69061;52.236;5.188;2024-02-28T04:02:40;101923.66;;;6.52;85.62
64908;BME280;69061;52.236;5.188;2024-02-28T04:05:07;101923.19;;;6.58;86.77
64908;BME280;69061;52.236;5.188;2024-02-28T04:07:36;101924.44;;;6.61;86.69
64908;BME280;69061;52.236;5.188;2024-02-28T04:10:03;101927.56;;;6.72;87.58
64908;BME280;69061;52.236;5.188;2024-02-28T04:12:30;101931.31;;;6.88;87.87
64908;BME280;69061;52.236;5.188;2024-02-28T04:14:57;101927.44;;;6.95;87.21
64908;BME280;69061;52.236;5.188;2024-02-28T04:17:23;101930.88;;;7.04;87.52
64908;BME280;69061;52.236;5.188;2024-02-28T04:19:50;101936.03;;;7.09;86.84
64908;BME280;69061;52.236;5.188;2024-02-28T04:22:16;101942.84;;;7.19;88.03
64908;BME280;69061;52.236;5.188;2024-02-28T04:24:44;101934.28;;;7.22;88.17
64908;BME280;69061;52.236;5.188;2024-02-28T04:27:11;101939.75;;;7.25;86.79
64908;BME280;69061;52.236;5.188;2024-02-28T04:29:38;101942.84;;;7.28;86.13
64908;BME280;69061;52.236;5.188;2024-02-28T04:32:04;101939.25;;;7.23;86.13
64908;BME280;69061;52.236;5.188;2024-02-28T04:34:31;101942.38;;;7.17;86.70
64908;BME280;69061;52.236;5.188;2024-02-28T04:36:57;101939.75;;;7.08;85.31
64908;BME280;69061;52.236;5.188;2024-02-28T04:39:24;101931.66;;;6.96;84.94
64908;BME280;69061;52.236;5.188;2024-02-28T04:41:52;101951.53;;;7.02;85.90
64908;BME280;69061;52.236;5.188;2024-02-28T04:44:19;101954.97;;;7.11;87.09
64908;BME280;69061;52.236;5.188;2024-02-28T04:46:45;101954.66;;;7.13;87.28
64908;BME280;69061;52.236;5.188;2024-02-28T04:49:12;101957.31;;;7.04;85.62
64908;BME280;69061;52.236;5.188;2024-02-28T04:51:38;101964.31;;;7.00;86.12
64908;BME280;69061;52.236;5.188;2024-02-28T04:54:05;101959.63;;;6.97;86.91
64908;BME280;69061;52.236;5.188;2024-02-28T04:56:31;101958.22;;;6.99;86.27
64908;BME280;69061;52.236;5.188;2024-02-28T04:58:59;101962.25;;;6.97;86.02
64908;BME280;69061;52.236;5.188;2024-02-28T05:01:26;101956.66;;;6.89;86.27
64908;BME280;69061;52.236;5.188;2024-02-28T05:03:53;101947.50;;;6.78;86.44
64908;BME280;69061;52.236;5.188;2024-02-28T05:06:20;101950.59;;;6.80;85.98
64908;BME280;69061;52.236;5.188;2024-02-28T05:08:47;101959.91;;;6.69;85.46
64908;BME280;69061;52.236;5.188;2024-02-28T05:11:14;101951.97;;;6.69;87.48
64908;BME280;69061;52.236;5.188;2024-02-28T05:13:41;101956.19;;;6.79;88.42
64908;BME280;69061;52.236;5.188;2024-02-28T05:16:13;101954.66;;;6.86;87.67
64908;BME280;69061;52.236;5.188;2024-02-28T05:18:39;101963.38;;;6.96;87.87
64908;BME280;69061;52.236;5.188;2024-02-28T05:21:06;101962.44;;;7.00;87.22
64908;BME280;69061;52.236;5.188;2024-02-28T05:23:33;101967.41;;;7.02;85.84
64908;BME280;69061;52.236;5.188;2024-02-28T05:25:59;101945.34;;;6.89;85.51
64908;BME280;69061;52.236;5.188;2024-02-28T05:28:29;101961.03;;;7.03;85.82
64908;BME280;69061;52.236;5.188;2024-02-28T05:30:56;101956.06;;;7.01;86.59
64908;BME280;69061;52.236;5.188;2024-02-28T05:33:23;101952.34;;;7.02;86.86
64908;BME280;69061;52.236;5.188;2024-02-28T05:35:50;101957.16;;;7.09;86.83
64908;BME280;69061;52.236;5.188;2024-02-28T05:38:17;101946.25;;;7.02;86.28
64908;BME280;69061;52.236;5.188;2024-02-28T05:40:43;101952.66;;;7.10;86.83
64908;BME280;69061;52.236;5.188;2024-02-28T05:43:10;101950.78;;;7.10;88.03
64908;BME280;69061;52.236;5.188;2024-02-28T05:45:36;101961.03;;;7.12;87.65
64908;BME280;69061;52.236;5.188;2024-02-28T05:48:03;101963.66;;;7.12;87.22
64908;BME280;69061;52.236;5.188;2024-02-28T05:50:31;101957.63;;;7.11;87.21
64908;BME280;69061;52.236;5.188;2024-02-28T05:52:58;101964.91;;;7.14;86.57
64908;BME280;69061;52.236;5.188;2024-02-28T05:55:24;101962.59;;;7.13;86.25
64908;BME280;69061;52.236;5.188;2024-02-28T05:57:51;101965.69;;;7.06;86.74
64908;BME280;69061;52.236;5.188;2024-02-28T06:00:18;101967.25;;;7.07;86.69
64908;BME280;69061;52.236;5.188;2024-02-28T06:02:45;101968.03;;;7.07;86.69
64908;BME280;69061;52.236;5.188;2024-02-28T06:05:11;101961.81;;;7.12;86.31
64908;BME280;69061;52.236;5.188;2024-02-28T06:07:40;101969.44;;;7.14;85.61
64908;BME280;69061;52.236;5.188;2024-02-28T06:10:07;101964.16;;;7.14;85.43
64908;BME280;69061;52.236;5.188;2024-02-28T06:12:35;101958.69;;;7.10;85.70
64908;BME280;69061;52.236;5.188;2024-02-28T06:15:02;101965.25;;;7.13;86.78
64908;BME280;69061;52.236;5.188;2024-02-28T06:17:30;101965.56;;;7.20;87.87
64908;BME280;69061;52.236;5.188;2024-02-28T06:19:57;101956.06;;;7.28;88.24
64908;BME280;69061;52.236;5.188;2024-02-28T06:22:23;101964.31;;;7.35;88.43
64908;BME280;69061;52.236;5.188;2024-02-28T06:24:51;101966.94;;;7.44;88.42
64908;BME280;69061;52.236;5.188;2024-02-28T06:27:18;101970.69;;;7.51;87.83
64908;BME280;69061;52.236;5.188;2024-02-28T06:29:46;101970.19;;;7.49;86.69
64908;BME280;69061;52.236;5.188;2024-02-28T06:32:14;101971.13;;;7.53;88.06
64908;BME280;69061;52.236;5.188;2024-02-28T06:34:41;101956.81;;;7.54;88.46
64908;BME280;69061;52.236;5.188;2024-02-28T06:37:08;101985.75;;;7.68;88.38
64908;BME280;69061;52.236;5.188;2024-02-28T06:39:34;101991.47;;;7.79;88.60
64908;BME280;69061;52.236;5.188;2024-02-28T06:42:02;101997.09;;;7.86;87.18
64908;BME280;69061;52.236;5.188;2024-02-28T06:44:29;101986.22;;;7.70;86.27
64908;BME280;69061;52.236;5.188;2024-02-28T06:46:56;101999.13;;;7.72;86.26
64908;BME280;69061;52.236;5.188;2024-02-28T06:49:22;101994.78;;;7.67;85.63
64908;BME280;69061;52.236;5.188;2024-02-28T06:51:49;102014.56;;;7.61;86.70
64908;BME280;69061;52.236;5.188;2024-02-28T06:54:16;102014.09;;;7.68;87.57
64908;BME280;69061;52.236;5.188;2024-02-28T06:56:42;102011.91;;;7.70;87.66
64908;BME280;69061;52.236;5.188;2024-02-28T06:59:11;102007.38;;;7.62;87.11
64908;BME280;69061;52.236;5.188;2024-02-28T07:01:38;102014.25;;;7.71;87.16
64908;BME280;69061;52.236;5.188;2024-02-28T07:04:04;102021.69;;;7.69;86.67
64908;BME280;69061;52.236;5.188;2024-02-28T07:06:31;102018.13;;;7.65;87.23
64908;BME280;69061;52.236;5.188;2024-02-28T07:08:57;102020.16;;;7.59;87.71
64908;BME280;69061;52.236;5.188;2024-02-28T07:11:24;102018.28;;;7.60;87.35
64908;BME280;69061;52.236;5.188;2024-02-28T07:13:50;102021.09;;;7.64;88.12
64908;BME280;69061;52.236;5.188;2024-02-28T07:16:18;102020.31;;;7.63;88.39
64908;BME280;69061;52.236;5.188;2024-02-28T07:18:45;102020.94;;;7.69;87.45
64908;BME280;69061;52.236;5.188;2024-02-28T07:21:12;102012.84;;;7.65;87.71
64908;BME280;69061;52.236;5.188;2024-02-28T07:23:39;102010.03;;;7.70;87.73
64908;BME280;69061;52.236;5.188;2024-02-28T07:26:06;102023.44;;;7.74;88.15
64908;BME280;69061;52.236;5.188;2024-02-28T07:28:32;102027.44;;;7.80;89.02
64908;BME280;69061;52.236;5.188;2024-02-28T07:30:59;102027.91;;;7.91;90.20
64908;BME280;69061;52.236;5.188;2024-02-28T07:33:27;102034.91;;;7.96;89.09
64908;BME280;69061;52.236;5.188;2024-02-28T07:35:53;102042.66;;;8.01;88.59
64908;BME280;69061;52.236;5.188;2024-02-28T07:38:20;102053.56;;;8.08;89.67
64908;BME280;69061;52.236;5.188;2024-02-28T07:40:50;102041.72;;;8.14;89.16
64908;BME280;69061;52.236;5.188;2024-02-28T07:43:17;102047.44;;;8.25;90.23
64908;BME280;69061;52.236;5.188;2024-02-28T07:45:44;102044.78;;;8.34;88.62
64908;BME280;69061;52.236;5.188;2024-02-28T07:48:10;102057.09;;;8.30;88.92
64908;BME280;69061;52.236;5.188;2024-02-28T07:50:39;102052.56;;;8.39;88.56
64908;BME280;69061;52.236;5.188;2024-02-28T07:53:07;102054.56;;;8.42;87.62
64908;BME280;69061;52.236;5.188;2024-02-28T07:55:33;102058.16;;;8.46;88.37
64908;BME280;69061;52.236;5.188;2024-02-28T07:58:00;102055.78;;;8.53;88.48
64908;BME280;69061;52.236;5.188;2024-02-28T08:00:26;102067.47;;;8.61;87.53
64908;BME280;69061;52.236;5.188;2024-02-28T08:02:53;102058.22;;;8.67;88.28
64908;BME280;69061;52.236;5.188;2024-02-28T08:05:20;102067.66;;;8.86;88.97
64908;BME280;69061;52.236;5.188;2024-02-28T08:07:48;102063.34;;;9.02;88.89
64908;BME280;69061;52.236;5.188;2024-02-28T08:10:15;102055.50;;;9.15;88.28
64908;BME280;69061;52.236;5.188;2024-02-28T08:12:41;102074.91;;;9.27;87.32
64908;BME280;69061;52.236;5.188;2024-02-28T08:15:08;102065.97;;;9.32;86.30
64908;BME280;69061;52.236;5.188;2024-02-28T08:17:35;102072.00;;;9.41;86.38
64908;BME280;69061;52.236;5.188;2024-02-28T08:20:02;102076.16;;;9.51;87.53
64908;BME280;69061;52.236;5.188;2024-02-28T08:22:30;102074.66;;;9.63;86.30
64908;BME280;69061;52.236;5.188;2024-02-28T08:24:58;102076.84;;;9.60;83.90
64908;BME280;69061;52.236;5.188;2024-02-28T08:27:24;102076.84;;;9.60;84.42
64908;BME280;69061;52.236;5.188;2024-02-28T08:29:51;102076.84;;;9.60;83.83
64908;BME280;69061;52.236;5.188;2024-02-28T08:32:18;102080.09;;;9.66;84.33
64908;BME280;69061;52.236;5.188;2024-02-28T08:34:44;102082.41;;;9.68;83.28
64908;BME280;69061;52.236;5.188;2024-02-28T08:37:11;102083.38;;;9.63;83.43
64908;BME280;69061;52.236;5.188;2024-02-28T08:39:38;102083.84;;;9.65;83.34
64908;BME280;69061;52.236;5.188;2024-02-28T08:42:06;102092.38;;;9.71;84.91
64908;BME280;69061;52.236;5.188;2024-02-28T08:44:32;102087.00;;;9.80;83.86
64908;BME280;69061;52.236;5.188;2024-02-28T08:46:59;102095.75;;;9.80;82.55
64908;BME280;69061;52.236;5.188;2024-02-28T08:49:25;102095.09;;;9.83;83.07
64908;BME280;69061;52.236;5.188;2024-02-28T08:51:52;102092.19;;;9.76;83.89
64908;BME280;69061;52.236;5.188;2024-02-28T08:54:19;102097.31;;;9.81;84.78
64908;BME280;69061;52.236;5.188;2024-02-28T08:56:45;102090.59;;;9.96;85.22
64908;BME280;69061;52.236;5.188;2024-02-28T08:59:13;102095.81;;;10.05;83.69
64908;BME280;69061;52.236;5.188;2024-02-28T09:01:40;102092.97;;;10.10;84.65
64908;BME280;69061;52.236;5.188;2024-02-28T09:04:07;102093.19;;;10.17;83.87
64908;BME280;69061;52.236;5.188;2024-02-28T09:06:34;102089.81;;;10.29;83.94
64908;BME280;69061;52.236;5.188;2024-02-28T09:09:00;102073.97;;;10.33;82.17
64908;BME280;69061;52.236;5.188;2024-02-28T09:11:27;102080.31;;;10.40;81.41
64908;BME280;69061;52.236;5.188;2024-02-28T09:13:53;102080.91;;;10.46;81.46
64908;BME280;69061;52.236;5.188;2024-02-28T09:16:21;102072.94;;;10.46;81.06
64908;BME280;69061;52.236;5.188;2024-02-28T09:18:48;102082.69;;;10.54;80.58
64908;BME280;69061;52.236;5.188;2024-02-28T09:21:14;102085.56;;;10.61;80.20
64908;BME280;69061;52.236;5.188;2024-02-28T09:23:41;102076.16;;;10.64;80.02
64908;BME280;69061;52.236;5.188;2024-02-28T09:26:08;102076.03;;;10.73;79.92
64908;BME280;69061;52.236;5.188;2024-02-28T09:28:35;102082.00;;;10.70;79.29
64908;BME280;69061;52.236;5.188;2024-02-28T09:31:02;102085.78;;;10.69;79.56
64908;BME280;69061;52.236;5.188;2024-02-28T09:33:30;102082.22;;;10.65;79.17
64908;BME280;69061;52.236;5.188;2024-02-28T09:35:57;102080.22;;;10.61;79.68
64908;BME280;69061;52.236;5.188;2024-02-28T09:38:23;102086.22;;;10.71;81.10
64908;BME280;69061;52.236;5.188;2024-02-28T09:40:50;102085.47;;;10.83;80.66
64908;BME280;69061;52.236;5.188;2024-02-28T09:43:22;102087.78;;;10.97;79.89
64908;BME280;69061;52.236;5.188;2024-02-28T09:45:53;102095.63;;;10.93;78.16
64908;BME280;69061;52.236;5.188;2024-02-28T09:48:20;102101.16;;;10.75;79.58
64908;BME280;69061;52.236;5.188;2024-02-28T09:50:48;102104.41;;;10.81;79.48
64908;BME280;69061;52.236;5.188;2024-02-28T09:53:15;102100.63;;;10.82;77.97
64908;BME280;69061;52.236;5.188;2024-02-28T09:55:41;102103.06;;;10.75;79.00
64908;BME280;69061;52.236;5.188;2024-02-28T09:58:09;102105.84;;;10.78;79.44
64908;BME280;69061;52.236;5.188;2024-02-28T10:00:37;102121.56;;;10.71;78.93
64908;BME280;69061;52.236;5.188;2024-02-28T10:03:05;102112.25;;;10.65;78.44
64908;BME280;69061;52.236;5.188;2024-02-28T10:05:33;102098.06;;;10.49;78.94
64908;BME280;69061;52.236;5.188;2024-02-28T10:08:01;102104.38;;;10.56;79.16
64908;BME280;69061;52.236;5.188;2024-02-28T10:10:28;102108.81;;;10.52;78.58
64908;BME280;69061;52.236;5.188;2024-02-28T10:12:54;102102.59;;;10.48;77.63
64908;BME280;69061;52.236;5.188;2024-02-28T10:15:22;102101.28;;;10.54;78.59
64908;BME280;69061;52.236;5.188;2024-02-28T10:17:48;102099.41;;;10.55;78.46
64908;BME280;69061;52.236;5.188;2024-02-28T10:20:15;102103.59;;;10.43;78.07
64908;BME280;69061;52.236;5.188;2024-02-28T10:22:41;102093.03;;;10.35;78.63
64908;BME280;69061;52.236;5.188;2024-02-28T10:25:09;102094.41;;;10.53;80.01
64908;BME280;69061;52.236;5.188;2024-02-28T10:27:36;102099.66;;;10.74;78.92
64908;BME280;69061;52.236;5.188;2024-02-28T10:30:03;102096.75;;;10.92;77.34
64908;BME280;69061;52.236;5.188;2024-02-28T10:32:31;102096.09;;;10.95;76.10
64908;BME280;69061;52.236;5.188;2024-02-28T10:34:59;102086.78;;;10.89;76.81
64908;BME280;69061;52.236;5.188;2024-02-28T10:37:28;102092.75;;;10.98;76.68
64908;BME280;69061;52.236;5.188;2024-02-28T10:39:57;102086.09;;;11.17;77.82
64908;BME280;69061;52.236;5.188;2024-02-28T10:42:29;102089.56;;;11.45;77.29
64908;BME280;69061;52.236;5.188;2024-02-28T10:44:57;102077.75;;;11.59;75.16
64908;BME280;69061;52.236;5.188;2024-02-28T10:47:25;102079.78;;;11.78;74.76
64908;BME280;69061;52.236;5.188;2024-02-28T10:49:53;102081.25;;;12.04;74.31
64908;BME280;69061;52.236;5.188;2024-02-28T10:52:21;102081.00;;;12.09;72.68
64908;BME280;69061;52.236;5.188;2024-02-28T10:54:54;102088.25;;;12.08;72.03
64908;BME280;69061;52.236;5.188;2024-02-28T10:57:21;102080.75;;;12.14;72.25
64908;BME280;69061;52.236;5.188;2024-02-28T10:59:53;102092.13;;;12.11;72.43
64908;BME280;69061;52.236;5.188;2024-02-28T11:02:20;102082.56;;;12.10;72.35
64908;BME280;69061;52.236;5.188;2024-02-28T11:04:47;102076.44;;;12.09;72.01
64908;BME280;69061;52.236;5.188;2024-02-28T11:07:19;102081.09;;;12.12;71.60
64908;BME280;69061;52.236;5.188;2024-02-28T11:09:46;102084.22;;;12.30;72.51
64908;BME280;69061;52.236;5.188;2024-02-28T11:12:24;102083.78;;;12.44;71.23
64908;BME280;69061;52.236;5.188;2024-02-28T11:14:58;102074.75;;;12.49;70.77
64908;BME280;69061;52.236;5.188;2024-02-28T11:17:28;102082.16;;;12.56;70.82
64908;BME280;69061;52.236;5.188;2024-02-28T11:19:56;102077.22;;;12.58;70.49
64908;BME280;69061;52.236;5.188;2024-02-28T11:22:23;102070.44;;;12.60;70.50
64908;BME280;69061;52.236;5.188;2024-02-28T11:24:49;102076.47;;;12.57;70.14
64908;BME280;69061;52.236;5.188;2024-02-28T11:27:20;102088.50;;;12.51;69.91
64908;BME280;69061;52.236;5.188;2024-02-28T11:29:46;102078.88;;;12.46;69.56
64908;BME280;69061;52.236;5.188;2024-02-28T11:32:16;102074.50;;;12.22;69.68
64908;BME280;69061;52.236;5.188;2024-02-28T11:34:42;102075.22;;;12.07;70.54
64908;BME280;69061;52.236;5.188;2024-02-28T11:37:10;102077.72;;;12.00;71.68
64908;BME280;69061;52.236;5.188;2024-02-28T11:39:38;102061.31;;;11.98;71.73
64908;BME280;69061;52.236;5.188;2024-02-28T11:42:09;102065.66;;;11.90;71.98
64908;BME280;69061;52.236;5.188;2024-02-28T11:44:35;102061.44;;;11.89;73.64
64908;BME280;69061;52.236;5.188;2024-02-28T11:47:02;102056.06;;;12.01;73.57
64908;BME280;69061;52.236;5.188;2024-02-28T11:49:32;102055.22;;;12.13;72.65
64908;BME280;69061;52.236;5.188;2024-02-28T11:51:59;102050.13;;;12.08;71.86
64908;BME280;69061;52.236;5.188;2024-02-28T11:54:25;102040.19;;;11.76;72.68
64908;BME280;69061;52.236;5.188;2024-02-28T11:56:52;102057.13;;;11.84;73.42
64908;BME280;69061;52.236;5.188;2024-02-28T11:59:19;102056.34;;;11.84;73.14
64908;BME280;69061;52.236;5.188;2024-02-28T12:01:46;102054.72;;;11.79;73.45
64908;BME280;69061;52.236;5.188;2024-02-28T12:04:13;102067.09;;;11.87;73.24
64908;BME280;69061;52.236;5.188;2024-02-28T12:06:41;102051.22;;;11.91;73.04
64908;BME280;69061;52.236;5.188;2024-02-28T12:09:08;102041.91;;;11.85;73.31
64908;BME280;69061;52.236;5.188;2024-02-28T12:11:36;102050.09;;;11.92;73.50
64908;BME280;69061;52.236;5.188;2024-02-28T12:14:03;102051.44;;;11.98;72.89
64908;BME280;69061;52.236;5.188;2024-02-28T12:16:32;102050.66;;;11.98;72.84
64908;BME280;69061;52.236;5.188;2024-02-28T12:18:58;102049.97;;;12.01;73.21
64908;BME280;69061;52.236;5.188;2024-02-28T12:21:25;102045.66;;;11.96;73.03
64908;BME280;69061;52.236;5.188;2024-02-28T12:23:53;102048.47;;;11.87;73.12
64908;BME280;69061;52.236;5.188;2024-02-28T12:26:19;102045.34;;;11.85;73.37
64908;BME280;69061;52.236;5.188;2024-02-28T12:28:46;102045.34;;;11.69;73.44
64908;BME280;69061;52.236;5.188;2024-02-28T12:31:13;102044.53;;;11.69;72.78
64908;BME280;69061;52.236;5.188;2024-02-28T12:33:40;102031.75;;;11.58;73.65
64908;BME280;69061;52.236;5.188;2024-02-28T12:36:07;102035.94;;;11.59;74.06
64908;BME280;69061;52.236;5.188;2024-02-28T12:38:34;102028.88;;;11.51;74.27
64908;BME280;69061;52.236;5.188;2024-02-28T12:41:02;102023.16;;;11.37;73.82
64908;BME280;69061;52.236;5.188;2024-02-28T12:43:30;102021.84;;;11.31;74.56
64908;BME280;69061;52.236;5.188;2024-02-28T12:45:57;102024.91;;;11.45;74.47
64908;BME280;69061;52.236;5.188;2024-02-28T12:48:25;102025.50;;;11.38;74.35
64908;BME280;69061;52.236;5.188;2024-02-28T12:50:52;102033.03;;;11.36;74.37
64908;BME280;69061;52.236;5.188;2024-02-28T12:53:19;102026.19;;;11.23;74.66
64908;BME280;69061;52.236;5.188;2024-02-28T12:55:45;102032.22;;;11.07;75.39